Ana Sayfa
METAR-TAF:

METAR-TAF

Havaalanları :

Henderson-Oxford Airport

Oxford, Kuzey Carolina, Amerika Birleşik Devletleri

Enlem: 36-21-42N, Boylam: 078-31-45W, yükseklik: 161 m

Güncel hava durumu gözlemi

Rapor saat 17:35 UTC de 21 dakika önce yapıldı.
Sakin rüzgar
Sıcaklık 34°C
Nem 44%
Basınç 1015 hPa
Görüş mesafesi: 16.1 km
Açık gökyüzü

METAR: KHNZ 201735Z AUTO 00000KT 10SM CLR 34/20 A2997 RMK AO2 T03410198

Saat: 13:56 (17:56 UTC)


TAF: eksik

4.000'den fazla havaalanı için hava durumu gözlemleri ve tahminleri (METAR ve TAF raporları).

Kullanılabilir istasyonlar harita üzerinde sarı ve kırmızı noktalarla gösterilir.

İstasyonun adını görmek için fareyi noktanın üzerinde gezdirin.

Sonrasında hava gözlem ve tahminlerini görmek için tıklayın.

Haritayı değiştirmek için: yaklaştırmak için siyah artı işaretli yeşil düğmeye ve uzaklaştırmak için de eksi işaretli düğmeye hızla tıklayın; bitişik haritalar için yeşil okları kullanın.


METAR-TAF: